sensor_id;sensor_type;location;lat;lon;timestamp;P1;durP1;ratioP1;P2;durP2;ratioP2
19651;SDS011;9974;52.146;14.668;2022-10-16T00:01:23;14.35;;;11.40;;
19651;SDS011;9974;52.146;14.668;2022-10-16T00:03:51;15.25;;;10.60;;
19651;SDS011;9974;52.146;14.668;2022-10-16T00:06:18;15.68;;;10.85;;
19651;SDS011;9974;52.146;14.668;2022-10-16T00:08:45;16.15;;;10.68;;
19651;SDS011;9974;52.146;14.668;2022-10-16T00:11:13;13.48;;;11.20;;
19651;SDS011;9974;52.146;14.668;2022-10-16T00:13:48;14.13;;;10.55;;
19651;SDS011;9974;52.146;14.668;2022-10-16T00:16:17;21.90;;;11.30;;
19651;SDS011;9974;52.146;14.668;2022-10-16T00:18:44;17.15;;;11.80;;
19651;SDS011;9974;52.146;14.668;2022-10-16T00:21:11;14.82;;;11.73;;
19651;SDS011;9974;52.146;14.668;2022-10-16T00:23:40;13.07;;;10.52;;
19651;SDS011;9974;52.146;14.668;2022-10-16T00:26:08;17.92;;;11.40;;
19651;SDS011;9974;52.146;14.668;2022-10-16T00:28:37;14.98;;;10.80;;
19651;SDS011;9974;52.146;14.668;2022-10-16T00:31:04;13.73;;;10.30;;
19651;SDS011;9974;52.146;14.668;2022-10-16T00:33:32;15.00;;;10.75;;
19651;SDS011;9974;52.146;14.668;2022-10-16T00:35:59;17.77;;;12.63;;
19651;SDS011;9974;52.146;14.668;2022-10-16T00:38:25;19.95;;;11.88;;
19651;SDS011;9974;52.146;14.668;2022-10-16T00:40:52;12.88;;;11.02;;
19651;SDS011;9974;52.146;14.668;2022-10-16T00:43:35;14.00;;;11.43;;
19651;SDS011;9974;52.146;14.668;2022-10-16T00:46:02;16.42;;;12.02;;
19651;SDS011;9974;52.146;14.668;2022-10-16T00:48:30;17.45;;;11.00;;
19651;SDS011;9974;52.146;14.668;2022-10-16T00:50:56;15.43;;;11.02;;
19651;SDS011;9974;52.146;14.668;2022-10-16T00:53:23;13.68;;;10.05;;
19651;SDS011;9974;52.146;14.668;2022-10-16T00:55:50;13.70;;;10.55;;
19651;SDS011;9974;52.146;14.668;2022-10-16T00:58:16;13.13;;;10.57;;
19651;SDS011;9974;52.146;14.668;2022-10-16T01:00:42;14.52;;;10.55;;
19651;SDS011;9974;52.146;14.668;2022-10-16T01:09:03;17.38;;;9.60;;
19651;SDS011;9974;52.146;14.668;2022-10-16T01:12:05;13.40;;;8.60;;
19651;SDS011;9974;52.146;14.668;2022-10-16T01:14:54;13.75;;;9.27;;
19651;SDS011;9974;52.146;14.668;2022-10-16T01:20:01;12.02;;;8.57;;
19651;SDS011;9974;52.146;14.668;2022-10-16T01:22:42;12.35;;;8.13;;
19651;SDS011;9974;52.146;14.668;2022-10-16T01:25:33;10.73;;;8.55;;
19651;SDS011;9974;52.146;14.668;2022-10-16T01:28:14;13.10;;;8.27;;
19651;SDS011;9974;52.146;14.668;2022-10-16T01:30:43;10.05;;;7.95;;
19651;SDS011;9974;52.146;14.668;2022-10-16T01:33:17;11.07;;;8.02;;
19651;SDS011;9974;52.146;14.668;2022-10-16T01:35:48;9.20;;;7.07;;
19651;SDS011;9974;52.146;14.668;2022-10-16T01:38:22;10.52;;;7.60;;
19651;SDS011;9974;52.146;14.668;2022-10-16T01:40:58;9.68;;;7.60;;
19651;SDS011;9974;52.146;14.668;2022-10-16T01:43:53;10.50;;;7.97;;
19651;SDS011;9974;52.146;14.668;2022-10-16T01:46:32;10.93;;;7.95;;
19651;SDS011;9974;52.146;14.668;2022-10-16T01:49:01;13.05;;;9.30;;
19651;SDS011;9974;52.146;14.668;2022-10-16T01:51:27;12.90;;;9.00;;
19651;SDS011;9974;52.146;14.668;2022-10-16T01:53:55;10.82;;;8.40;;
19651;SDS011;9974;52.146;14.668;2022-10-16T01:56:25;13.00;;;7.68;;
19651;SDS011;9974;52.146;14.668;2022-10-16T01:58:53;11.05;;;8.25;;
19651;SDS011;9974;52.146;14.668;2022-10-16T02:01:30;11.82;;;8.05;;
19651;SDS011;9974;52.146;14.668;2022-10-16T02:04:01;11.23;;;8.93;;
19651;SDS011;9974;52.146;14.668;2022-10-16T02:06:34;12.25;;;8.52;;
19651;SDS011;9974;52.146;14.668;2022-10-16T02:09:00;11.43;;;7.82;;
19651;SDS011;9974;52.146;14.668;2022-10-16T02:11:27;13.48;;;8.43;;
19651;SDS011;9974;52.146;14.668;2022-10-16T02:13:53;10.52;;;8.10;;
19651;SDS011;9974;52.146;14.668;2022-10-16T02:16:37;11.05;;;8.30;;
19651;SDS011;9974;52.146;14.668;2022-10-16T02:19:09;12.77;;;7.60;;
19651;SDS011;9974;52.146;14.668;2022-10-16T02:21:40;10.32;;;7.45;;
19651;SDS011;9974;52.146;14.668;2022-10-16T02:24:27;9.75;;;7.53;;
19651;SDS011;9974;52.146;14.668;2022-10-16T02:27:04;9.57;;;7.53;;
19651;SDS011;9974;52.146;14.668;2022-10-16T02:29:45;10.25;;;7.47;;
19651;SDS011;9974;52.146;14.668;2022-10-16T02:32:19;9.27;;;7.47;;
19651;SDS011;9974;52.146;14.668;2022-10-16T02:34:48;9.10;;;7.18;;
19651;SDS011;9974;52.146;14.668;2022-10-16T02:37:16;10.98;;;8.85;;
19651;SDS011;9974;52.146;14.668;2022-10-16T02:39:43;8.88;;;6.10;;
19651;SDS011;9974;52.146;14.668;2022-10-16T02:42:09;9.18;;;7.10;;
19651;SDS011;9974;52.146;14.668;2022-10-16T02:44:40;9.32;;;6.80;;
19651;SDS011;9974;52.146;14.668;2022-10-16T02:47:06;9.27;;;6.75;;
19651;SDS011;9974;52.146;14.668;2022-10-16T02:49:32;9.23;;;6.53;;
19651;SDS011;9974;52.146;14.668;2022-10-16T02:51:57;8.90;;;6.97;;
19651;SDS011;9974;52.146;14.668;2022-10-16T02:54:23;9.35;;;6.93;;
19651;SDS011;9974;52.146;14.668;2022-10-16T02:56:49;8.85;;;6.85;;
19651;SDS011;9974;52.146;14.668;2022-10-16T02:59:15;9.60;;;6.90;;
19651;SDS011;9974;52.146;14.668;2022-10-16T03:01:41;9.23;;;7.07;;
19651;SDS011;9974;52.146;14.668;2022-10-16T03:04:07;9.55;;;6.78;;
19651;SDS011;9974;52.146;14.668;2022-10-16T03:06:33;9.35;;;6.38;;
19651;SDS011;9974;52.146;14.668;2022-10-16T03:08:59;10.70;;;7.57;;
19651;SDS011;9974;52.146;14.668;2022-10-16T03:11:25;9.75;;;6.93;;
19651;SDS011;9974;52.146;14.668;2022-10-16T03:13:51;10.00;;;7.53;;
19651;SDS011;9974;52.146;14.668;2022-10-16T03:16:17;10.05;;;6.88;;
19651;SDS011;9974;52.146;14.668;2022-10-16T03:18:42;8.65;;;6.65;;
19651;SDS011;9974;52.146;14.668;2022-10-16T03:21:08;8.05;;;6.25;;
19651;SDS011;9974;52.146;14.668;2022-10-16T03:23:35;9.13;;;6.20;;
19651;SDS011;9974;52.146;14.668;2022-10-16T03:26:01;9.95;;;5.72;;
19651;SDS011;9974;52.146;14.668;2022-10-16T03:28:27;8.13;;;6.22;;
19651;SDS011;9974;52.146;14.668;2022-10-16T03:30:53;8.20;;;6.10;;
19651;SDS011;9974;52.146;14.668;2022-10-16T03:33:18;9.15;;;7.20;;
19651;SDS011;9974;52.146;14.668;2022-10-16T03:35:50;9.93;;;6.15;;
19651;SDS011;9974;52.146;14.668;2022-10-16T03:38:19;8.23;;;5.90;;
19651;SDS011;9974;52.146;14.668;2022-10-16T03:40:46;10.85;;;5.43;;
19651;SDS011;9974;52.146;14.668;2022-10-16T03:43:12;9.30;;;6.55;;
19651;SDS011;9974;52.146;14.668;2022-10-16T03:45:38;6.80;;;5.43;;
19651;SDS011;9974;52.146;14.668;2022-10-16T03:48:04;9.05;;;6.55;;
19651;SDS011;9974;52.146;14.668;2022-10-16T03:50:31;8.52;;;5.68;;
19651;SDS011;9974;52.146;14.668;2022-10-16T03:52:57;9.00;;;6.03;;
19651;SDS011;9974;52.146;14.668;2022-10-16T03:55:23;8.65;;;6.07;;
19651;SDS011;9974;52.146;14.668;2022-10-16T03:57:49;8.27;;;6.00;;
19651;SDS011;9974;52.146;14.668;2022-10-16T04:00:15;6.78;;;5.53;;
19651;SDS011;9974;52.146;14.668;2022-10-16T04:02:41;6.45;;;5.50;;
19651;SDS011;9974;52.146;14.668;2022-10-16T04:05:07;7.53;;;5.30;;
19651;SDS011;9974;52.146;14.668;2022-10-16T04:07:33;8.13;;;5.38;;
19651;SDS011;9974;52.146;14.668;2022-10-16T04:10:00;7.25;;;5.13;;
19651;SDS011;9974;52.146;14.668;2022-10-16T04:12:26;6.32;;;4.72;;
19651;SDS011;9974;52.146;14.668;2022-10-16T04:14:52;7.32;;;5.43;;
19651;SDS011;9974;52.146;14.668;2022-10-16T04:17:17;7.00;;;5.30;;
19651;SDS011;9974;52.146;14.668;2022-10-16T04:19:43;7.28;;;5.40;;
19651;SDS011;9974;52.146;14.668;2022-10-16T04:22:09;7.82;;;5.82;;
19651;SDS011;9974;52.146;14.668;2022-10-16T04:24:35;7.80;;;4.78;;
19651;SDS011;9974;52.146;14.668;2022-10-16T04:27:01;9.02;;;5.22;;
19651;SDS011;9974;52.146;14.668;2022-10-16T04:29:27;7.85;;;4.60;;
19651;SDS011;9974;52.146;14.668;2022-10-16T04:31:53;7.60;;;5.40;;
19651;SDS011;9974;52.146;14.668;2022-10-16T04:34:19;6.93;;;5.50;;
19651;SDS011;9974;52.146;14.668;2022-10-16T04:36:47;7.07;;;5.38;;
19651;SDS011;9974;52.146;14.668;2022-10-16T04:39:14;9.70;;;6.05;;
19651;SDS011;9974;52.146;14.668;2022-10-16T04:41:40;7.93;;;6.03;;
19651;SDS011;9974;52.146;14.668;2022-10-16T04:44:06;14.57;;;5.70;;
19651;SDS011;9974;52.146;14.668;2022-10-16T04:46:32;7.13;;;5.63;;
19651;SDS011;9974;52.146;14.668;2022-10-16T04:48:58;8.23;;;5.38;;
19651;SDS011;9974;52.146;14.668;2022-10-16T04:51:24;7.90;;;5.60;;
19651;SDS011;9974;52.146;14.668;2022-10-16T04:53:51;7.82;;;5.88;;
19651;SDS011;9974;52.146;14.668;2022-10-16T04:56:17;8.52;;;5.10;;
19651;SDS011;9974;52.146;14.668;2022-10-16T04:58:43;8.77;;;6.45;;
19651;SDS011;9974;52.146;14.668;2022-10-16T05:01:09;9.27;;;6.75;;
19651;SDS011;9974;52.146;14.668;2022-10-16T05:03:35;7.38;;;5.35;;
19651;SDS011;9974;52.146;14.668;2022-10-16T05:06:01;8.10;;;5.70;;
19651;SDS011;9974;52.146;14.668;2022-10-16T05:08:29;8.95;;;5.72;;
19651;SDS011;9974;52.146;14.668;2022-10-16T05:10:55;8.05;;;6.15;;
19651;SDS011;9974;52.146;14.668;2022-10-16T05:13:21;10.07;;;6.75;;
19651;SDS011;9974;52.146;14.668;2022-10-16T05:15:48;7.90;;;5.43;;
19651;SDS011;9974;52.146;14.668;2022-10-16T05:18:14;7.45;;;5.97;;
19651;SDS011;9974;52.146;14.668;2022-10-16T05:20:41;9.20;;;5.75;;
19651;SDS011;9974;52.146;14.668;2022-10-16T05:23:07;9.13;;;6.45;;
19651;SDS011;9974;52.146;14.668;2022-10-16T05:25:35;6.85;;;5.30;;
19651;SDS011;9974;52.146;14.668;2022-10-16T05:28:01;7.22;;;5.68;;
19651;SDS011;9974;52.146;14.668;2022-10-16T05:30:27;7.78;;;5.53;;
19651;SDS011;9974;52.146;14.668;2022-10-16T05:32:52;9.32;;;6.00;;
19651;SDS011;9974;52.146;14.668;2022-10-16T05:35:19;7.65;;;5.55;;
19651;SDS011;9974;52.146;14.668;2022-10-16T05:37:46;8.90;;;6.60;;
19651;SDS011;9974;52.146;14.668;2022-10-16T05:40:12;10.15;;;6.35;;
19651;SDS011;9974;52.146;14.668;2022-10-16T05:42:39;8.13;;;5.85;;
19651;SDS011;9974;52.146;14.668;2022-10-16T05:45:06;9.57;;;6.65;;
19651;SDS011;9974;52.146;14.668;2022-10-16T05:47:34;8.82;;;6.72;;
19651;SDS011;9974;52.146;14.668;2022-10-16T05:50:00;8.60;;;6.45;;
19651;SDS011;9974;52.146;14.668;2022-10-16T05:52:26;9.55;;;6.75;;
19651;SDS011;9974;52.146;14.668;2022-10-16T05:54:52;8.27;;;6.25;;
19651;SDS011;9974;52.146;14.668;2022-10-16T05:57:18;9.20;;;7.10;;
19651;SDS011;9974;52.146;14.668;2022-10-16T05:59:44;8.57;;;7.05;;
19651;SDS011;9974;52.146;14.668;2022-10-16T06:02:13;8.20;;;6.85;;
19651;SDS011;9974;52.146;14.668;2022-10-16T06:04:39;12.00;;;6.95;;
19651;SDS011;9974;52.146;14.668;2022-10-16T06:07:05;7.82;;;6.07;;
19651;SDS011;9974;52.146;14.668;2022-10-16T06:09:31;9.70;;;6.72;;
19651;SDS011;9974;52.146;14.668;2022-10-16T06:11:57;9.32;;;7.03;;
19651;SDS011;9974;52.146;14.668;2022-10-16T06:14:23;8.65;;;7.22;;
19651;SDS011;9974;52.146;14.668;2022-10-16T06:16:49;9.13;;;6.35;;
19651;SDS011;9974;52.146;14.668;2022-10-16T06:19:15;8.40;;;6.43;;
19651;SDS011;9974;52.146;14.668;2022-10-16T06:21:42;8.07;;;6.97;;
19651;SDS011;9974;52.146;14.668;2022-10-16T06:24:08;9.02;;;7.78;;
19651;SDS011;9974;52.146;14.668;2022-10-16T06:26:34;8.52;;;6.63;;
19651;SDS011;9974;52.146;14.668;2022-10-16T06:29:00;9.77;;;7.38;;
19651;SDS011;9974;52.146;14.668;2022-10-16T06:31:27;8.45;;;7.25;;
19651;SDS011;9974;52.146;14.668;2022-10-16T06:33:55;8.23;;;7.03;;
19651;SDS011;9974;52.146;14.668;2022-10-16T06:36:22;8.43;;;6.65;;
19651;SDS011;9974;52.146;14.668;2022-10-16T06:38:48;9.65;;;7.32;;
19651;SDS011;9974;52.146;14.668;2022-10-16T06:41:15;11.50;;;7.07;;
19651;SDS011;9974;52.146;14.668;2022-10-16T06:43:44;10.63;;;7.45;;
19651;SDS011;9974;52.146;14.668;2022-10-16T06:46:11;11.10;;;7.35;;
19651;SDS011;9974;52.146;14.668;2022-10-16T06:48:39;8.85;;;7.07;;
19651;SDS011;9974;52.146;14.668;2022-10-16T06:51:06;10.20;;;7.90;;
19651;SDS011;9974;52.146;14.668;2022-10-16T06:53:39;11.00;;;7.32;;
19651;SDS011;9974;52.146;14.668;2022-10-16T06:56:14;10.57;;;8.48;;
19651;SDS011;9974;52.146;14.668;2022-10-16T06:58:49;11.60;;;8.95;;
19651;SDS011;9974;52.146;14.668;2022-10-16T07:01:16;10.63;;;8.52;;
19651;SDS011;9974;52.146;14.668;2022-10-16T07:03:44;10.48;;;8.43;;
19651;SDS011;9974;52.146;14.668;2022-10-16T07:06:12;10.88;;;8.38;;
19651;SDS011;9974;52.146;14.668;2022-10-16T07:08:40;11.90;;;8.50;;
19651;SDS011;9974;52.146;14.668;2022-10-16T07:11:09;11.73;;;9.18;;
19651;SDS011;9974;52.146;14.668;2022-10-16T07:13:38;13.88;;;8.88;;
19651;SDS011;9974;52.146;14.668;2022-10-16T07:18:36;9.82;;;7.25;;
19651;SDS011;9974;52.146;14.668;2022-10-16T07:21:07;9.55;;;7.63;;
19651;SDS011;9974;52.146;14.668;2022-10-16T07:23:39;10.05;;;7.85;;
19651;SDS011;9974;52.146;14.668;2022-10-16T07:26:05;9.38;;;7.20;;
19651;SDS011;9974;52.146;14.668;2022-10-16T07:28:32;8.98;;;7.03;;
19651;SDS011;9974;52.146;14.668;2022-10-16T07:31:02;9.05;;;7.35;;
19651;SDS011;9974;52.146;14.668;2022-10-16T07:33:30;8.07;;;6.53;;
19651;SDS011;9974;52.146;14.668;2022-10-16T07:35:57;10.48;;;6.82;;
19651;SDS011;9974;52.146;14.668;2022-10-16T07:38:23;8.48;;;6.38;;
19651;SDS011;9974;52.146;14.668;2022-10-16T07:40:55;8.07;;;5.82;;
19651;SDS011;9974;52.146;14.668;2022-10-16T07:43:23;8.00;;;6.68;;
19651;SDS011;9974;52.146;14.668;2022-10-16T07:45:50;6.93;;;5.57;;
19651;SDS011;9974;52.146;14.668;2022-10-16T07:48:16;8.65;;;5.80;;
19651;SDS011;9974;52.146;14.668;2022-10-16T07:50:43;7.88;;;5.55;;
19651;SDS011;9974;52.146;14.668;2022-10-16T07:53:09;7.18;;;5.82;;
19651;SDS011;9974;52.146;14.668;2022-10-16T07:55:35;8.38;;;5.75;;
19651;SDS011;9974;52.146;14.668;2022-10-16T07:58:01;10.75;;;6.28;;
19651;SDS011;9974;52.146;14.668;2022-10-16T08:00:27;10.13;;;6.05;;
19651;SDS011;9974;52.146;14.668;2022-10-16T08:02:53;8.15;;;5.78;;
19651;SDS011;9974;52.146;14.668;2022-10-16T08:05:19;7.85;;;6.30;;
19651;SDS011;9974;52.146;14.668;2022-10-16T08:07:49;10.07;;;5.30;;
19651;SDS011;9974;52.146;14.668;2022-10-16T08:10:15;7.32;;;6.05;;
19651;SDS011;9974;52.146;14.668;2022-10-16T08:12:43;11.07;;;7.50;;
19651;SDS011;9974;52.146;14.668;2022-10-16T08:15:09;7.13;;;5.30;;
19651;SDS011;9974;52.146;14.668;2022-10-16T08:17:35;6.05;;;5.10;;
19651;SDS011;9974;52.146;14.668;2022-10-16T08:20:01;8.23;;;4.82;;
19651;SDS011;9974;52.146;14.668;2022-10-16T08:22:27;5.97;;;4.60;;
19651;SDS011;9974;52.146;14.668;2022-10-16T08:24:53;5.50;;;4.45;;
19651;SDS011;9974;52.146;14.668;2022-10-16T08:27:19;6.25;;;4.97;;
19651;SDS011;9974;52.146;14.668;2022-10-16T08:29:45;5.90;;;4.50;;
19651;SDS011;9974;52.146;14.668;2022-10-16T08:32:13;5.68;;;4.03;;
19651;SDS011;9974;52.146;14.668;2022-10-16T08:34:39;6.50;;;4.57;;
19651;SDS011;9974;52.146;14.668;2022-10-16T08:37:05;4.50;;;3.40;;
19651;SDS011;9974;52.146;14.668;2022-10-16T08:39:32;8.20;;;4.45;;
19651;SDS011;9974;52.146;14.668;2022-10-16T08:42:02;7.53;;;3.85;;
19651;SDS011;9974;52.146;14.668;2022-10-16T08:47:56;6.65;;;3.20;;
19651;SDS011;9974;52.146;14.668;2022-10-16T08:50:36;4.18;;;2.78;;
19651;SDS011;9974;52.146;14.668;2022-10-16T08:53:05;3.85;;;2.42;;
19651;SDS011;9974;52.146;14.668;2022-10-16T08:55:42;2.92;;;2.17;;
19651;SDS011;9974;52.146;14.668;2022-10-16T08:58:15;2.95;;;2.08;;
19651;SDS011;9974;52.146;14.668;2022-10-16T09:00:45;3.38;;;2.30;;
19651;SDS011;9974;52.146;14.668;2022-10-16T09:06:29;2.88;;;1.63;;
19651;SDS011;9974;52.146;14.668;2022-10-16T09:09:31;4.20;;;1.95;;
19651;SDS011;9974;52.146;14.668;2022-10-16T09:14:56;3.95;;;1.90;;
19651;SDS011;9974;52.146;14.668;2022-10-16T09:20:53;4.28;;;2.33;;
19651;SDS011;9974;52.146;14.668;2022-10-16T09:23:43;3.55;;;1.63;;
19651;SDS011;9974;52.146;14.668;2022-10-16T09:26:10;4.32;;;1.63;;
19651;SDS011;9974;52.146;14.668;2022-10-16T09:28:39;3.22;;;1.10;;
19651;SDS011;9974;52.146;14.668;2022-10-16T09:31:05;2.88;;;1.52;;
19651;SDS011;9974;52.146;14.668;2022-10-16T09:33:35;1.70;;;1.23;;
19651;SDS011;9974;52.146;14.668;2022-10-16T09:36:03;1.60;;;1.15;;
19651;SDS011;9974;52.146;14.668;2022-10-16T09:38:31;2.22;;;1.25;;
19651;SDS011;9974;52.146;14.668;2022-10-16T09:41:01;4.63;;;1.75;;
19651;SDS011;9974;52.146;14.668;2022-10-16T09:43:40;1.77;;;1.15;;
19651;SDS011;9974;52.146;14.668;2022-10-16T09:46:26;3.47;;;1.40;;
19651;SDS011;9974;52.146;14.668;2022-10-16T09:48:59;4.43;;;1.15;;
19651;SDS011;9974;52.146;14.668;2022-10-16T09:51:49;1.02;;;0.82;;
19651;SDS011;9974;52.146;14.668;2022-10-16T09:54:17;1.20;;;0.70;;
19651;SDS011;9974;52.146;14.668;2022-10-16T09:56:45;23.20;;;1.02;;
19651;SDS011;9974;52.146;14.668;2022-10-16T09:59:14;7.10;;;0.93;;
19651;SDS011;9974;52.146;14.668;2022-10-16T10:01:46;1.30;;;0.73;;
19651;SDS011;9974;52.146;14.668;2022-10-16T10:04:15;2.90;;;0.90;;
19651;SDS011;9974;52.146;14.668;2022-10-16T10:06:43;1.90;;;0.52;;
19651;SDS011;9974;52.146;14.668;2022-10-16T10:09:21;1.15;;;0.70;;
19651;SDS011;9974;52.146;14.668;2022-10-16T10:11:56;0.85;;;0.60;;
19651;SDS011;9974;52.146;14.668;2022-10-16T10:14:28;0.50;;;0.40;;
19651;SDS011;9974;52.146;14.668;2022-10-16T10:17:23;1.27;;;0.60;;
19651;SDS011;9974;52.146;14.668;2022-10-16T10:19:52;0.73;;;0.68;;
19651;SDS011;9974;52.146;14.668;2022-10-16T10:22:47;1.90;;;0.70;;
19651;SDS011;9974;52.146;14.668;2022-10-16T10:36:45;1.60;;;0.35;;
19651;SDS011;9974;52.146;14.668;2022-10-16T10:39:30;1.45;;;0.70;;
19651;SDS011;9974;52.146;14.668;2022-10-16T10:42:13;0.98;;;0.60;;
19651;SDS011;9974;52.146;14.668;2022-10-16T10:45:03;5.35;;;0.50;;
19651;SDS011;9974;52.146;14.668;2022-10-16T10:48:11;0.95;;;0.60;;
19651;SDS011;9974;52.146;14.668;2022-10-16T10:51:11;1.15;;;0.70;;
19651;SDS011;9974;52.146;14.668;2022-10-16T10:56:50;2.42;;;0.45;;
19651;SDS011;9974;52.146;14.668;2022-10-16T10:59:49;0.68;;;0.60;;
19651;SDS011;9974;52.146;14.668;2022-10-16T11:02:37;1.48;;;0.50;;
19651;SDS011;9974;52.146;14.668;2022-10-16T11:05:31;0.90;;;0.60;;
19651;SDS011;9974;52.146;14.668;2022-10-16T11:08:35;1.20;;;0.47;;
19651;SDS011;9974;52.146;14.668;2022-10-16T11:11:25;0.85;;;0.50;;
19651;SDS011;9974;52.146;14.668;2022-10-16T11:17:00;0.40;;;0.40;;
19651;SDS011;9974;52.146;14.668;2022-10-16T11:19:41;0.40;;;0.40;;
19651;SDS011;9974;52.146;14.668;2022-10-16T11:22:34;1.88;;;0.50;;
19651;SDS011;9974;52.146;14.668;2022-10-16T11:27:57;1.38;;;1.27;;
19651;SDS011;9974;52.146;14.668;2022-10-16T11:30:49;0.52;;;0.40;;
19651;SDS011;9974;52.146;14.668;2022-10-16T11:36:05;1.00;;;0.63;;
19651;SDS011;9974;52.146;14.668;2022-10-16T11:38:57;0.55;;;0.47;;
19651;SDS011;9974;52.146;14.668;2022-10-16T11:41:57;1.02;;;0.50;;
19651;SDS011;9974;52.146;14.668;2022-10-16T11:44:38;1.65;;;0.50;;
19651;SDS011;9974;52.146;14.668;2022-10-16T11:47:42;3.20;;;0.40;;
19651;SDS011;9974;52.146;14.668;2022-10-16T11:52:44;0.40;;;0.40;;
19651;SDS011;9974;52.146;14.668;2022-10-16T11:55:36;1.02;;;0.52;;
19651;SDS011;9974;52.146;14.668;2022-10-16T12:03:46;0.57;;;0.47;;
19651;SDS011;9974;52.146;14.668;2022-10-16T12:06:55;0.43;;;0.43;;
19651;SDS011;9974;52.146;14.668;2022-10-16T12:09:34;2.03;;;0.70;;
19651;SDS011;9974;52.146;14.668;2022-10-16T12:12:03;0.68;;;0.57;;
19651;SDS011;9974;52.146;14.668;2022-10-16T12:17:02;0.73;;;0.52;;
19651;SDS011;9974;52.146;14.668;2022-10-16T12:20:00;4.68;;;0.40;;
19651;SDS011;9974;52.146;14.668;2022-10-16T12:22:47;0.40;;;0.40;;
19651;SDS011;9974;52.146;14.668;2022-10-16T12:25:23;0.63;;;0.52;;
19651;SDS011;9974;52.146;14.668;2022-10-16T12:28:00;0.80;;;0.35;;
19651;SDS011;9974;52.146;14.668;2022-10-16T12:30:51;0.73;;;0.40;;
19651;SDS011;9974;52.146;14.668;2022-10-16T12:33:24;1.48;;;0.65;;
19651;SDS011;9974;52.146;14.668;2022-10-16T12:35:52;0.73;;;0.40;;
19651;SDS011;9974;52.146;14.668;2022-10-16T12:38:26;0.32;;;0.32;;
19651;SDS011;9974;52.146;14.668;2022-10-16T12:41:03;0.25;;;0.25;;
19651;SDS011;9974;52.146;14.668;2022-10-16T12:43:36;3.33;;;0.60;;
19651;SDS011;9974;52.146;14.668;2022-10-16T12:48:40;0.75;;;0.50;;
19651;SDS011;9974;52.146;14.668;2022-10-16T12:51:10;1.08;;;0.40;;
19651;SDS011;9974;52.146;14.668;2022-10-16T12:54:00;0.73;;;0.43;;
19651;SDS011;9974;52.146;14.668;2022-10-16T12:59:42;0.20;;;0.20;;
19651;SDS011;9974;52.146;14.668;2022-10-16T13:02:59;0.30;;;0.30;;
19651;SDS011;9974;52.146;14.668;2022-10-16T13:08:40;2.00;;;0.60;;
19651;SDS011;9974;52.146;14.668;2022-10-16T13:17:27;0.30;;;0.30;;
19651;SDS011;9974;52.146;14.668;2022-10-16T13:20:25;0.30;;;0.30;;
19651;SDS011;9974;52.146;14.668;2022-10-16T13:23:19;7.20;;;0.52;;
19651;SDS011;9974;52.146;14.668;2022-10-16T13:26:09;0.47;;;0.40;;
19651;SDS011;9974;52.146;14.668;2022-10-16T13:28:41;0.30;;;0.30;;
19651;SDS011;9974;52.146;14.668;2022-10-16T13:31:14;1.48;;;0.45;;
19651;SDS011;9974;52.146;14.668;2022-10-16T13:33:50;0.77;;;0.30;;
19651;SDS011;9974;52.146;14.668;2022-10-16T13:36:23;0.57;;;0.40;;
19651;SDS011;9974;52.146;14.668;2022-10-16T13:39:00;0.35;;;0.35;;
19651;SDS011;9974;52.146;14.668;2022-10-16T13:41:31;1.35;;;0.55;;
19651;SDS011;9974;52.146;14.668;2022-10-16T13:43:57;0.45;;;0.43;;
19651;SDS011;9974;52.146;14.668;2022-10-16T13:46:23;0.32;;;0.32;;
19651;SDS011;9974;52.146;14.668;2022-10-16T13:49:00;0.30;;;0.30;;
19651;SDS011;9974;52.146;14.668;2022-10-16T13:51:35;0.30;;;0.30;;
19651;SDS011;9974;52.146;14.668;2022-10-16T13:54:01;0.90;;;0.30;;
19651;SDS011;9974;52.146;14.668;2022-10-16T13:56:28;1.10;;;0.93;;
19651;SDS011;9974;52.146;14.668;2022-10-16T13:59:03;0.63;;;0.40;;
19651;SDS011;9974;52.146;14.668;2022-10-16T14:01:35;0.45;;;0.40;;
19651;SDS011;9974;52.146;14.668;2022-10-16T14:04:08;1.90;;;0.47;;
19651;SDS011;9974;52.146;14.668;2022-10-16T14:06:36;1.33;;;0.40;;
19651;SDS011;9974;52.146;14.668;2022-10-16T14:09:21;0.40;;;0.40;;
19651;SDS011;9974;52.146;14.668;2022-10-16T14:11:54;1.10;;;0.52;;
19651;SDS011;9974;52.146;14.668;2022-10-16T14:14:34;0.30;;;0.30;;
19651;SDS011;9974;52.146;14.668;2022-10-16T14:17:06;0.38;;;0.30;;
19651;SDS011;9974;52.146;14.668;2022-10-16T14:19:40;0.20;;;0.20;;
19651;SDS011;9974;52.146;14.668;2022-10-16T14:22:22;0.77;;;0.50;;
19651;SDS011;9974;52.146;14.668;2022-10-16T14:24:57;0.30;;;0.30;;
19651;SDS011;9974;52.146;14.668;2022-10-16T14:27:26;0.75;;;0.38;;
19651;SDS011;9974;52.146;14.668;2022-10-16T14:32:54;0.70;;;0.50;;
19651;SDS011;9974;52.146;14.668;2022-10-16T14:35:32;0.95;;;0.40;;
19651;SDS011;9974;52.146;14.668;2022-10-16T14:38:03;0.65;;;0.40;;
19651;SDS011;9974;52.146;14.668;2022-10-16T14:40:36;0.75;;;0.50;;
19651;SDS011;9974;52.146;14.668;2022-10-16T14:43:03;0.60;;;0.40;;
19651;SDS011;9974;52.146;14.668;2022-10-16T14:45:31;0.20;;;0.20;;
19651;SDS011;9974;52.146;14.668;2022-10-16T14:48:00;0.63;;;0.57;;
19651;SDS011;9974;52.146;14.668;2022-10-16T14:50:31;0.88;;;0.47;;
19651;SDS011;9974;52.146;14.668;2022-10-16T14:52:58;1.13;;;0.75;;
19651;SDS011;9974;52.146;14.668;2022-10-16T14:55:24;0.40;;;0.40;;
19651;SDS011;9974;52.146;14.668;2022-10-16T14:57:50;0.50;;;0.50;;
19651;SDS011;9974;52.146;14.668;2022-10-16T15:00:18;0.60;;;0.50;;
19651;SDS011;9974;52.146;14.668;2022-10-16T15:02:47;0.90;;;0.50;;
19651;SDS011;9974;52.146;14.668;2022-10-16T15:05:18;0.77;;;0.63;;
19651;SDS011;9974;52.146;14.668;2022-10-16T15:07:51;4.05;;;0.60;;
19651;SDS011;9974;52.146;14.668;2022-10-16T15:10:19;0.63;;;0.60;;
19651;SDS011;9974;52.146;14.668;2022-10-16T15:12:46;1.48;;;0.65;;
19651;SDS011;9974;52.146;14.668;2022-10-16T15:15:20;0.88;;;0.70;;
19651;SDS011;9974;52.146;14.668;2022-10-16T15:17:50;0.70;;;0.60;;
19651;SDS011;9974;52.146;14.668;2022-10-16T15:20:18;1.88;;;0.55;;
19651;SDS011;9974;52.146;14.668;2022-10-16T15:22:45;1.33;;;0.77;;
19651;SDS011;9974;52.146;14.668;2022-10-16T15:25:25;1.27;;;0.65;;
19651;SDS011;9974;52.146;14.668;2022-10-16T15:27:57;1.45;;;0.45;;
19651;SDS011;9974;52.146;14.668;2022-10-16T15:30:24;2.53;;;0.70;;
19651;SDS011;9974;52.146;14.668;2022-10-16T15:32:50;2.08;;;0.50;;
19651;SDS011;9974;52.146;14.668;2022-10-16T15:35:16;0.57;;;0.55;;
19651;SDS011;9974;52.146;14.668;2022-10-16T15:37:42;0.60;;;0.43;;
19651;SDS011;9974;52.146;14.668;2022-10-16T15:40:08;1.15;;;0.70;;
19651;SDS011;9974;52.146;14.668;2022-10-16T15:42:35;1.08;;;0.70;;
19651;SDS011;9974;52.146;14.668;2022-10-16T15:45:01;2.78;;;0.77;;
19651;SDS011;9974;52.146;14.668;2022-10-16T15:47:28;1.35;;;0.68;;
19651;SDS011;9974;52.146;14.668;2022-10-16T15:49:54;1.13;;;0.60;;
19651;SDS011;9974;52.146;14.668;2022-10-16T15:52:20;0.70;;;0.60;;
19651;SDS011;9974;52.146;14.668;2022-10-16T15:54:46;1.85;;;1.00;;
19651;SDS011;9974;52.146;14.668;2022-10-16T15:57:12;1.40;;;1.00;;
19651;SDS011;9974;52.146;14.668;2022-10-16T15:59:38;1.23;;;0.82;;
19651;SDS011;9974;52.146;14.668;2022-10-16T16:02:04;1.15;;;1.05;;
19651;SDS011;9974;52.146;14.668;2022-10-16T16:04:30;1.20;;;0.80;;
19651;SDS011;9974;52.146;14.668;2022-10-16T16:06:57;4.65;;;1.50;;
19651;SDS011;9974;52.146;14.668;2022-10-16T16:09:23;4.75;;;1.17;;
19651;SDS011;9974;52.146;14.668;2022-10-16T16:11:49;3.83;;;2.22;;
19651;SDS011;9974;52.146;14.668;2022-10-16T16:14:17;4.88;;;1.83;;
19651;SDS011;9974;52.146;14.668;2022-10-16T16:16:42;4.40;;;2.22;;
19651;SDS011;9974;52.146;14.668;2022-10-16T16:19:08;3.75;;;2.03;;
19651;SDS011;9974;52.146;14.668;2022-10-16T16:21:34;2.13;;;1.55;;
19651;SDS011;9974;52.146;14.668;2022-10-16T16:24:00;4.93;;;2.22;;